Time;durP1;ratioP1;P1;durP2;ratioP2;P2;SDS_P1;SDS_P2;PMS_P1;PMS_P2;Temp;Humidity;BMP_temperature;BMP_pressure;BME280_temperature;BME280_humidity;BME280_pressure;Samples;Min_cycle;Max_cycle;Signal;HPM_P1;HPM_P2
2023/12/23 00:02:20;;;;;;;0.30;0.20;;;;;;;10.27;90.70;99535.88;5004644;28;20990;-52
2023/12/23 00:04:46;;;;;;;0.30;0.20;;;;;;;10.24;91.43;99538.66;5005384;28;20479;-52
2023/12/23 00:07:14;;;;;;;0.30;0.20;;;;;;;10.38;91.56;99523.91;4999437;28;20452;-52
2023/12/23 00:09:41;;;;;;;0.30;0.20;;;;;;;10.25;91.97;99554.53;5010643;28;20488;-52
2023/12/23 00:12:08;;;;;;;0.30;0.20;;;;;;;10.26;92.90;99566.91;5003528;28;20568;-52
2023/12/23 00:14:36;;;;;;;0.30;0.20;;;;;;;10.21;92.55;99582.16;4994020;28;20469;-52
2023/12/23 00:17:03;;;;;;;0.30;0.20;;;;;;;10.17;93.10;99583.19;5005891;28;20483;-52
2023/12/23 00:19:30;;;;;;;0.30;0.20;;;;;;;10.16;93.10;99591.22;5008533;28;20458;-52
2023/12/23 00:21:56;;;;;;;0.30;0.20;;;;;;;10.24;92.33;99600.63;4998531;28;20473;-52
2023/12/23 00:24:24;;;;;;;0.30;0.20;;;;;;;10.27;92.21;99613.78;4998547;28;20535;-52
2023/12/23 00:26:51;;;;;;;0.30;0.20;;;;;;;10.34;91.81;99628.56;5005249;28;20455;-52
2023/12/23 00:29:17;;;;;;;2.67;2.57;;;;;;;10.32;92.51;99635.75;5008632;28;20485;-52
2023/12/23 00:31:44;;;;;;;0.30;0.20;;;;;;;10.22;93.58;99631.69;5001362;28;20539;-52
2023/12/23 00:34:10;;;;;;;0.30;0.20;;;;;;;10.22;94.49;99629.03;4998562;28;20831;-52
2023/12/23 00:36:37;;;;;;;0.30;0.20;;;;;;;10.29;95.37;99632.34;5002117;28;20541;-52
2023/12/23 00:39:04;;;;;;;0.30;0.20;;;;;;;10.24;95.66;99642.25;5004082;28;20719;-52
2023/12/23 00:41:30;;;;;;;0.30;0.20;;;;;;;10.27;96.20;99636.81;5001829;28;20478;-52
2023/12/23 00:43:56;;;;;;;0.30;0.20;;;;;;;10.21;95.92;99637.03;5001450;28;20957;-51
2023/12/23 00:46:24;;;;;;;0.30;0.20;;;;;;;10.31;95.91;99644.63;5001167;28;20995;-52
2023/12/23 00:48:50;;;;;;;0.30;0.20;;;;;;;10.27;96.04;99640.34;5005212;28;20545;-52
2023/12/23 00:51:17;;;;;;;0.30;0.20;;;;;;;10.28;95.91;99649.19;4999671;28;21004;-52
2023/12/23 00:53:43;;;;;;;0.30;0.20;;;;;;;10.25;96.51;99643.97;5004876;28;20452;-52
2023/12/23 00:56:21;;;;;;;0.30;0.20;;;;;;;10.28;96.33;99652.72;5003208;28;20932;-51
2023/12/23 00:58:49;;;;;;;0.30;0.20;;;;;;;10.28;96.23;99659.81;5005044;28;20442;-52
2023/12/23 01:01:15;;;;;;;0.30;0.20;;;;;;;10.26;97.17;99656.34;5003278;28;20993;-52
2023/12/23 01:03:43;;;;;;;0.30;0.20;;;;;;;10.20;97.82;99640.63;4998485;28;20459;-51
2023/12/23 01:06:10;;;;;;;0.30;0.20;;;;;;;10.20;98.01;99649.44;4998247;28;20508;-52
2023/12/23 01:08:36;;;;;;;0.30;0.20;;;;;;;10.24;98.08;99647.56;4992915;28;20462;-52
2023/12/23 01:11:03;;;;;;;0.30;0.20;;;;;;;10.16;98.67;99655.81;5011116;28;20579;-52
2023/12/23 01:13:30;;;;;;;0.30;0.20;;;;;;;10.26;98.69;99659.84;5006636;28;20504;-52
2023/12/23 01:15:56;;;;;;;0.30;0.20;;;;;;;10.27;97.21;99658.06;5006529;28;20454;-52
2023/12/23 01:18:23;;;;;;;0.30;0.20;;;;;;;10.21;97.48;99651.22;5003304;28;20456;-52
2023/12/23 01:20:49;;;;;;;0.30;0.20;;;;;;;10.25;96.99;99670.53;5007808;28;20444;-52
2023/12/23 01:23:16;;;;;;;0.30;0.20;;;;;;;10.35;95.95;99677.25;5001369;28;20448;-52
2023/12/23 01:25:43;;;;;;;0.30;0.20;;;;;;;10.38;95.15;99667.38;5002078;28;20450;-51
2023/12/23 01:28:09;;;;;;;0.30;0.20;;;;;;;10.41;94.56;99668.19;5014319;28;20431;-52
2023/12/23 01:30:36;;;;;;;0.30;0.20;;;;;;;10.35;94.54;99666.63;5001664;28;20547;-51
2023/12/23 01:33:03;;;;;;;0.30;0.20;;;;;;;10.40;94.53;99667.31;5000643;28;20509;-52
2023/12/23 01:35:29;;;;;;;0.30;0.20;;;;;;;10.34;94.95;99676.38;5008190;28;20452;-52
2023/12/23 01:37:56;;;;;;;0.30;0.20;;;;;;;10.40;94.53;99669.97;5001493;28;20556;-52
2023/12/23 01:40:25;;;;;;;0.30;0.20;;;;;;;10.42;94.30;99669.94;5000413;28;20646;-52
2023/12/23 01:42:52;;;;;;;0.30;0.20;;;;;;;10.39;94.39;99671.75;5002270;28;20477;-52
2023/12/23 01:45:19;;;;;;;0.30;0.20;;;;;;;10.37;94.41;99673.63;5012941;28;20497;-52
2023/12/23 01:47:50;;;;;;;0.30;0.20;;;;;;;10.43;95.28;99675.19;5003241;28;20456;-52
2023/12/23 01:50:21;;;;;;;0.30;0.20;;;;;;;10.28;95.76;99671.31;5000967;28;20497;-52
2023/12/23 01:52:52;;;;;;;0.30;0.20;;;;;;;10.34;96.57;99659.59;5004843;28;20485;-51
2023/12/23 01:55:19;;;;;;;0.30;0.20;;;;;;;10.37;97.00;99662.97;4994649;28;20424;-51
2023/12/23 01:57:45;;;;;;;0.30;0.20;;;;;;;10.34;96.96;99671.06;5004270;28;20458;-52
2023/12/23 02:00:12;;;;;;;0.30;0.20;;;;;;;10.26;96.95;99672.28;5004905;28;20480;-51
2023/12/23 02:02:40;;;;;;;0.30;0.20;;;;;;;10.35;97.15;99672.81;5004122;28;20448;-52
2023/12/23 02:05:08;;;;;;;0.30;0.20;;;;;;;10.33;97.18;99674.66;5007462;28;20449;-52
2023/12/23 02:07:35;;;;;;;0.30;0.20;;;;;;;10.27;96.63;99682.84;5003999;28;20797;-51
2023/12/23 02:10:03;;;;;;;0.30;0.20;;;;;;;10.32;96.75;99688.00;5009333;28;20452;-52
2023/12/23 02:12:39;;;;;;;0.30;0.20;;;;;;;10.42;96.83;99685.88;5013477;28;20469;-52
2023/12/23 02:15:09;;;;;;;0.30;0.20;;;;;;;10.31;96.76;99681.81;5000704;28;20448;-52
2023/12/23 02:17:37;;;;;;;0.30;0.20;;;;;;;10.31;96.08;99683.63;5013550;28;20890;-52
2023/12/23 02:20:05;;;;;;;0.30;0.20;;;;;;;10.35;95.57;99687.88;5006547;28;21003;-52
2023/12/23 02:22:31;;;;;;;0.30;0.20;;;;;;;10.34;95.08;99689.69;5006762;28;20480;-51
2023/12/23 02:24:58;;;;;;;0.30;0.20;;;;;;;10.42;95.17;99692.06;5001067;28;20859;-52
2023/12/23 02:27:39;;;;;;;0.30;0.20;;;;;;;10.41;94.78;99700.91;5000328;28;21172;-52
2023/12/23 02:30:06;;;;;;;0.30;0.20;;;;;;;10.40;95.03;99712.47;5004135;28;20548;-52
2023/12/23 02:32:33;;;;;;;0.30;0.20;;;;;;;10.48;95.05;99706.88;5006861;28;20473;-52
2023/12/23 02:34:59;;;;;;;0.30;0.20;;;;;;;10.52;94.93;99712.03;5003052;28;20944;-52
2023/12/23 02:37:26;;;;;;;0.30;0.20;;;;;;;10.43;94.65;99712.38;5004262;28;20476;-52
2023/12/23 02:39:52;;;;;;;0.30;0.20;;;;;;;10.44;95.10;99698.19;5003343;28;20457;-52
2023/12/23 02:42:18;;;;;;;0.30;0.20;;;;;;;10.37;94.83;99718.78;4999658;28;20527;-52
2023/12/23 02:44:45;;;;;;;0.30;0.20;;;;;;;10.38;95.20;99707.22;5003451;28;20458;-52
2023/12/23 02:47:12;;;;;;;0.30;0.20;;;;;;;10.45;95.06;99707.88;5009139;28;20464;-52
2023/12/23 02:49:39;;;;;;;0.30;0.20;;;;;;;10.37;95.05;99702.84;4993646;28;20449;-51
2023/12/23 02:52:05;;;;;;;0.30;0.20;;;;;;;10.40;95.09;99701.84;5007097;28;20505;-51
2023/12/23 02:54:32;;;;;;;0.30;0.20;;;;;;;10.45;95.10;99707.88;4997882;28;20466;-51
2023/12/23 02:56:58;;;;;;;0.30;0.20;;;;;;;10.42;94.68;99699.16;5006600;28;20464;-52
2023/12/23 02:59:25;;;;;;;0.30;0.20;;;;;;;10.48;95.05;99712.22;4993358;28;20884;-51
2023/12/23 03:01:53;;;;;;;0.30;0.20;;;;;;;10.50;94.33;99702.38;5006658;28;20485;-51
2023/12/23 03:04:19;;;;;;;0.30;0.20;;;;;;;10.43;94.08;99704.41;4993644;28;20821;-51
2023/12/23 03:06:46;;;;;;;0.30;0.20;;;;;;;10.41;95.26;99705.38;5010444;28;20544;-51
2023/12/23 03:09:12;;;;;;;0.30;0.20;;;;;;;10.42;94.67;99696.50;5007596;28;20491;-51
2023/12/23 03:11:39;;;;;;;0.30;0.20;;;;;;;10.40;95.00;99696.53;5008176;28;20500;-51
2023/12/23 03:14:05;;;;;;;0.30;0.20;;;;;;;10.48;94.70;99699.78;5003913;28;20969;-51
2023/12/23 03:16:35;;;;;;;0.30;0.20;;;;;;;10.46;93.93;99698.13;4999198;28;20957;-51
2023/12/23 03:19:03;;;;;;;0.30;0.20;;;;;;;10.37;94.72;99694.88;5001296;28;20456;-51
2023/12/23 03:21:30;;;;;;;0.30;0.20;;;;;;;10.46;94.38;99690.16;5011406;28;20475;-51
2023/12/23 03:23:56;;;;;;;0.30;0.20;;;;;;;10.46;94.11;99688.34;5000732;28;20449;-51
2023/12/23 03:26:23;;;;;;;0.30;0.20;;;;;;;10.48;94.21;99685.63;5008698;28;20459;-51
2023/12/23 03:28:49;;;;;;;0.30;0.20;;;;;;;10.48;93.46;99677.66;5000409;28;20797;-51
2023/12/23 03:31:15;;;;;;;0.30;0.20;;;;;;;10.49;93.31;99679.41;5005831;28;21084;-51
2023/12/23 03:33:42;;;;;;;0.30;0.20;;;;;;;10.48;92.96;99662.59;4993006;28;20421;-51
2023/12/23 03:36:08;;;;;;;0.30;0.20;;;;;;;10.48;92.82;99657.28;4993375;28;20460;-51
2023/12/23 03:38:35;;;;;;;0.30;0.20;;;;;;;10.50;92.84;99658.06;5004919;28;20968;-51
2023/12/23 03:41:01;;;;;;;0.30;0.20;;;;;;;10.54;92.41;99645.53;4999005;28;20444;-51
2023/12/23 03:43:28;;;;;;;0.30;0.20;;;;;;;10.55;92.22;99650.81;5012044;28;20457;-51
2023/12/23 03:45:54;;;;;;;0.30;0.20;;;;;;;10.49;92.85;99651.03;5025544;28;20518;-52
2023/12/23 03:48:21;;;;;;;0.30;0.20;;;;;;;10.45;93.20;99651.22;4999700;28;20460;-51
2023/12/23 03:50:47;;;;;;;0.30;0.20;;;;;;;10.54;92.81;99645.53;5011215;28;20488;-51
2023/12/23 03:53:14;;;;;;;0.30;0.20;;;;;;;10.51;92.74;99641.19;4999229;28;20468;-51
2023/12/23 03:55:41;;;;;;;0.30;0.20;;;;;;;10.45;93.35;99643.25;4992458;28;20804;-51
2023/12/23 03:58:07;;;;;;;0.30;0.20;;;;;;;10.50;93.50;99636.81;5005545;28;20449;-51
2023/12/23 04:00:34;;;;;;;0.30;0.20;;;;;;;10.45;93.08;99632.63;4998588;28;20448;-51
2023/12/23 04:03:00;;;;;;;0.30;0.20;;;;;;;10.42;93.99;99646.03;4999096;28;20477;-51
2023/12/23 04:05:27;;;;;;;0.30;0.20;;;;;;;10.52;93.20;99628.78;5005104;28;20465;-51
2023/12/23 04:07:53;;;;;;;0.30;0.20;;;;;;;10.50;93.34;99628.84;5005477;28;20463;-51
2023/12/23 04:10:19;;;;;;;0.30;0.20;;;;;;;10.50;93.11;99641.25;5007058;28;20875;-51
2023/12/23 04:12:46;;;;;;;0.30;0.20;;;;;;;10.51;92.50;99635.03;5011346;28;20571;-51
2023/12/23 04:15:13;;;;;;;0.30;0.20;;;;;;;10.46;93.80;99632.56;5003756;28;20460;-51
2023/12/23 04:17:39;;;;;;;0.30;0.20;;;;;;;10.33;93.96;99620.66;5006175;28;20875;-52
2023/12/23 04:20:07;;;;;;;0.30;0.20;;;;;;;10.35;93.95;99629.44;4999571;28;20979;-51
2023/12/23 04:22:34;;;;;;;0.30;0.20;;;;;;;10.42;93.98;99617.66;4998753;28;20480;-51
2023/12/23 04:25:01;;;;;;;0.30;0.20;;;;;;;10.33;94.09;99621.53;5004492;28;20532;-54
2023/12/23 04:27:27;;;;;;;0.30;0.20;;;;;;;10.37;93.43;99632.91;4997223;28;20461;-51
2023/12/23 04:29:54;;;;;;;0.30;0.20;;;;;;;10.38;92.89;99618.69;4993913;28;20457;-51
2023/12/23 04:32:20;;;;;;;0.30;0.20;;;;;;;10.43;92.61;99619.41;4995049;28;20855;-51
2023/12/23 04:34:47;;;;;;;0.30;0.20;;;;;;;10.43;92.50;99615.88;4992270;28;20452;-51
2023/12/23 04:37:13;;;;;;;0.30;0.20;;;;;;;10.39;92.73;99615.97;4995997;28;20457;-50
2023/12/23 04:39:40;;;;;;;0.30;0.20;;;;;;;10.50;91.88;99604.06;5000175;28;20453;-50
2023/12/23 04:42:06;;;;;;;0.30;0.20;;;;;;;10.50;91.79;99601.41;5010534;28;20551;-50
2023/12/23 04:44:32;;;;;;;0.30;0.20;;;;;;;10.47;91.58;99606.84;4996383;28;20528;-50
2023/12/23 04:46:59;;;;;;;0.30;0.20;;;;;;;10.56;92.11;99609.16;4993623;28;20453;-50
2023/12/23 04:49:25;;;;;;;0.30;0.20;;;;;;;10.59;91.96;99617.88;4995649;28;20449;-50
2023/12/23 04:51:52;;;;;;;0.30;0.20;;;;;;;10.54;92.59;99605.66;5000874;28;21059;-50
2023/12/23 04:54:18;;;;;;;0.30;0.20;;;;;;;10.53;92.28;99606.59;5008943;28;21032;-51
2023/12/23 04:56:45;;;;;;;0.30;0.20;;;;;;;10.51;92.89;99609.31;5014735;28;20458;-50
2023/12/23 04:59:12;;;;;;;0.30;0.20;;;;;;;10.46;93.67;99597.16;5007813;28;20468;-50
2023/12/23 05:01:38;;;;;;;0.30;0.20;;;;;;;10.44;93.83;99607.84;5014891;28;20514;-51
2023/12/23 05:04:05;;;;;;;0.30;0.20;;;;;;;10.46;94.70;99599.81;5014413;28;20444;-51
2023/12/23 05:06:31;;;;;;;0.30;0.20;;;;;;;10.39;95.29;99589.41;5005793;28;20535;-51
2023/12/23 05:08:58;;;;;;;0.30;0.20;;;;;;;10.37;95.58;99579.75;5015333;28;20492;-51
2023/12/23 05:11:24;;;;;;;0.30;0.20;;;;;;;10.35;96.58;99592.25;5013786;28;20499;-51
2023/12/23 05:13:51;;;;;;;0.30;0.20;;;;;;;10.38;95.85;99587.66;5006412;28;20977;-51
2023/12/23 05:16:17;;;;;;;0.30;0.20;;;;;;;10.40;96.24;99590.25;5009969;28;20543;-51
2023/12/23 05:18:44;;;;;;;0.30;0.20;;;;;;;10.33;96.26;99579.03;5006305;28;20492;-52
2023/12/23 05:21:10;;;;;;;0.30;0.20;;;;;;;10.29;96.79;99574.78;5009029;28;20479;-51
2023/12/23 05:23:37;;;;;;;0.30;0.20;;;;;;;10.41;96.92;99576.06;4996867;28;20449;-52
2023/12/23 05:26:03;;;;;;;0.30;0.20;;;;;;;10.35;96.67;99568.34;5008611;28;20456;-51
2023/12/23 05:28:30;;;;;;;0.30;0.20;;;;;;;10.35;97.03;99571.84;5004215;28;20444;-51
2023/12/23 05:30:56;;;;;;;0.30;0.20;;;;;;;10.36;96.46;99573.59;5012179;28;20443;-51
2023/12/23 05:33:24;;;;;;;0.30;0.20;;;;;;;10.41;96.19;99569.88;4995148;28;20931;-52
2023/12/23 05:35:51;;;;;;;0.30;0.20;;;;;;;10.39;96.26;99556.66;5011460;28;20485;-51
2023/12/23 05:38:18;;;;;;;0.30;0.20;;;;;;;10.44;95.36;99562.69;5005102;28;20877;-51
2023/12/23 05:40:44;;;;;;;0.30;0.20;;;;;;;10.52;95.20;99557.03;5009636;28;20536;-51
2023/12/23 05:43:11;;;;;;;0.30;0.20;;;;;;;10.50;95.07;99553.59;4996077;28;20420;-51
2023/12/23 05:45:37;;;;;;;0.30;0.20;;;;;;;10.48;94.72;99551.00;5012958;28;20454;-51
2023/12/23 05:48:04;;;;;;;0.30;0.20;;;;;;;10.44;95.28;99559.16;5013757;28;20479;-52
2023/12/23 05:50:31;;;;;;;0.30;0.20;;;;;;;10.54;94.59;99571.13;5002561;28;20449;-51
2023/12/23 05:52:57;;;;;;;0.30;0.20;;;;;;;10.58;94.49;99559.47;5014250;28;20492;-51
2023/12/23 05:55:24;;;;;;;0.30;0.20;;;;;;;10.54;94.40;99569.31;5014560;28;20460;-51
2023/12/23 05:57:50;;;;;;;0.30;0.20;;;;;;;10.54;93.84;99573.78;5004278;28;20450;-51
2023/12/23 06:00:19;;;;;;;0.30;0.20;;;;;;;10.58;94.07;99557.66;5006800;28;20454;-51
2023/12/23 06:02:46;;;;;;;0.30;0.20;;;;;;;10.55;94.28;99575.50;5010800;28;20472;-51
2023/12/23 06:05:13;;;;;;;0.30;0.20;;;;;;;10.63;93.91;99578.75;5007933;28;20455;-51
2023/12/23 06:07:39;;;;;;;0.30;0.20;;;;;;;10.52;94.41;99581.81;5005822;28;20971;-51
2023/12/23 06:10:06;;;;;;;0.30;0.20;;;;;;;10.50;94.97;99569.53;5014495;28;20476;-51
2023/12/23 06:12:33;;;;;;;0.30;0.20;;;;;;;10.44;95.25;99560.03;5014608;28;21004;-51
2023/12/23 06:15:00;;;;;;;0.30;0.20;;;;;;;10.51;95.50;99576.56;5010711;28;20544;-51
2023/12/23 06:17:26;;;;;;;0.30;0.20;;;;;;;10.40;95.76;99576.97;5001006;28;20448;-51
2023/12/23 06:19:53;;;;;;;0.30;0.20;;;;;;;10.55;95.40;99572.84;5000939;28;20534;-52
2023/12/23 06:22:20;;;;;;;0.30;0.20;;;;;;;10.45;95.94;99571.50;5007819;28;20443;-52
2023/12/23 06:24:46;;;;;;;0.30;0.20;;;;;;;10.48;95.45;99558.97;5004703;28;20511;-51
2023/12/23 06:27:13;;;;;;;0.30;0.20;;;;;;;10.43;95.66;99558.28;5012969;28;20460;-51
2023/12/23 06:29:39;;;;;;;0.30;0.20;;;;;;;10.42;96.35;99558.34;4997331;28;20894;-52
2023/12/23 06:32:06;;;;;;;0.30;0.20;;;;;;;10.39;96.63;99561.97;5005740;28;20511;-51
2023/12/23 06:34:32;;;;;;;0.30;0.20;;;;;;;10.31;96.84;99559.63;5013719;28;20544;-53
2023/12/23 06:36:59;;;;;;;0.30;0.20;;;;;;;10.27;96.82;99558.00;5003781;28;20450;-51
2023/12/23 06:39:25;;;;;;;0.30;0.20;;;;;;;10.26;96.56;99566.03;4996462;28;20875;-51
2023/12/23 06:41:52;;;;;;;0.30;0.20;;;;;;;10.31;96.67;99556.13;5005714;28;21354;-51
2023/12/23 06:44:18;;;;;;;0.30;0.20;;;;;;;10.33;95.87;99556.91;5013735;28;20483;-51
2023/12/23 06:46:46;;;;;;;0.30;0.20;;;;;;;10.31;95.96;99556.97;5001408;28;20456;-51
2023/12/23 06:49:13;;;;;;;0.30;0.20;;;;;;;10.36;95.30;99551.47;4998818;28;20453;-51
2023/12/23 06:51:40;;;;;;;0.30;0.20;;;;;;;10.42;94.92;99561.00;5013353;28;20644;-51
2023/12/23 06:54:06;;;;;;;0.30;0.20;;;;;;;10.44;94.94;99572.44;5012992;28;20535;-51
2023/12/23 06:56:32;;;;;;;0.30;0.20;;;;;;;10.45;94.18;99564.41;5009588;28;20460;-51
2023/12/23 06:59:01;;;;;;;0.30;0.20;;;;;;;10.46;94.20;99544.88;5000797;28;20486;-51
2023/12/23 07:01:37;;;;;;;0.30;0.20;;;;;;;10.54;93.84;99565.81;5012238;28;20472;-52
2023/12/23 07:04:06;;;;;;;0.30;0.20;;;;;;;10.54;93.55;99561.34;4994715;28;20519;-51
2023/12/23 07:06:33;;;;;;;0.30;0.20;;;;;;;10.52;93.89;99579.16;5006626;28;20459;-51
2023/12/23 07:09:01;;;;;;;0.30;0.20;;;;;;;10.52;93.35;99576.50;4997333;28;21033;-51
2023/12/23 07:11:27;;;;;;;0.30;0.20;;;;;;;10.45;93.50;99583.00;5011675;28;20469;-51
2023/12/23 07:13:54;;;;;;;0.30;0.20;;;;;;;10.51;93.35;99579.22;5011899;28;20463;-52
2023/12/23 07:16:20;;;;;;;0.30;0.20;;;;;;;10.70;92.84;99580.22;5007635;28;20461;-52
2023/12/23 07:18:47;;;;;;;0.30;0.20;;;;;;;10.53;93.36;99582.69;4996969;28;20591;-51
2023/12/23 07:21:13;;;;;;;0.30;0.20;;;;;;;10.53;93.70;99577.38;5000796;28;20482;-51
2023/12/23 07:23:40;;;;;;;0.30;0.20;;;;;;;10.63;93.50;99587.56;5012308;28;20448;-52
2023/12/23 07:26:12;;;;;;;0.30;0.20;;;;;;;10.65;92.86;99584.84;4999351;28;20539;-52
2023/12/23 07:28:38;;;;;;;0.30;0.20;;;;;;;10.79;92.72;99587.81;5001821;28;20457;-51
2023/12/23 07:31:05;;;;;;;0.30;0.20;;;;;;;10.76;92.62;99585.28;5010256;28;20456;-51
2023/12/23 07:33:32;;;;;;;0.30;0.20;;;;;;;10.67;92.61;99589.16;5000325;28;20500;-51
2023/12/23 07:35:58;;;;;;;0.30;0.20;;;;;;;10.56;93.17;99599.38;5005924;28;20461;-51
2023/12/23 07:38:25;;;;;;;0.30;0.20;;;;;;;10.56;93.06;99599.38;5004055;28;20453;-51
2023/12/23 07:40:51;;;;;;;0.30;0.20;;;;;;;10.69;92.14;99602.44;4994426;28;20507;-51
2023/12/23 07:43:18;;;;;;;0.30;0.20;;;;;;;10.66;92.46;99602.53;5003438;28;20448;-51
2023/12/23 07:45:44;;;;;;;0.30;0.20;;;;;;;10.72;92.31;99596.13;5008411;28;20460;-52
2023/12/23 07:48:11;;;;;;;0.30;0.20;;;;;;;10.59;92.94;99601.91;5001887;28;20453;-51
2023/12/23 07:50:37;;;;;;;0.30;0.20;;;;;;;10.66;92.25;99613.16;5007317;28;20457;-51
2023/12/23 07:53:04;;;;;;;0.30;0.20;;;;;;;10.58;92.80;99609.97;5009922;28;20525;-51
2023/12/23 07:55:31;;;;;;;0.30;0.20;;;;;;;10.65;92.66;99611.44;5012065;28;20503;-51
2023/12/23 07:57:59;;;;;;;0.30;0.20;;;;;;;10.51;92.36;99589.84;5000193;28;20454;-51
2023/12/23 08:00:25;;;;;;;0.30;0.20;;;;;;;10.77;91.52;99602.09;5005726;28;20450;-50
2023/12/23 08:02:52;;;;;;;0.30;0.20;;;;;;;10.77;91.14;99599.44;4992653;28;20552;-50
2023/12/23 08:05:19;;;;;;;0.30;0.20;;;;;;;10.72;91.61;99612.94;4997746;28;20456;-50
2023/12/23 08:07:45;;;;;;;0.30;0.20;;;;;;;10.68;92.00;99621.94;5000104;28;20453;-50
2023/12/23 08:10:12;;;;;;;0.30;0.20;;;;;;;10.68;92.15;99609.50;5019064;28;20473;-50
2023/12/23 08:12:38;;;;;;;0.30;0.20;;;;;;;10.67;91.15;99609.56;4999462;28;20500;-51
2023/12/23 08:15:05;;;;;;;0.30;0.20;;;;;;;10.67;91.85;99618.41;5005408;28;20536;-50
2023/12/23 08:17:31;;;;;;;0.30;0.20;;;;;;;10.72;91.64;99599.63;4998288;28;20452;-50
2023/12/23 08:19:58;;;;;;;0.30;0.20;;;;;;;10.76;91.37;99606.56;5005435;28;20453;-51
2023/12/23 08:22:25;;;;;;;0.30;0.20;;;;;;;10.70;91.31;99606.81;4994004;28;20535;-51
2023/12/23 08:24:51;;;;;;;0.30;0.20;;;;;;;10.72;91.14;99612.94;5002316;28;20510;-51
2023/12/23 08:27:18;;;;;;;0.30;0.20;;;;;;;10.79;91.24;99617.06;5015887;28;20790;-51
2023/12/23 08:29:46;;;;;;;0.30;0.20;;;;;;;10.70;91.89;99624.56;5015967;28;20454;-51
2023/12/23 08:32:13;;;;;;;0.30;0.20;;;;;;;10.56;91.69;99615.34;5015696;28;21004;-50
2023/12/23 08:34:39;;;;;;;0.30;0.20;;;;;;;10.61;91.93;99617.81;5009513;28;20499;-50
2023/12/23 08:37:06;;;;;;;0.30;0.20;;;;;;;10.64;91.69;99621.19;5009063;28;20452;-50
2023/12/23 08:39:32;;;;;;;0.30;0.20;;;;;;;10.73;91.94;99625.28;5009032;28;20532;-50
2023/12/23 08:41:58;;;;;;;0.30;0.20;;;;;;;10.58;91.70;99620.59;5009108;28;20537;-50
2023/12/23 08:44:25;;;;;;;0.30;0.20;;;;;;;10.85;91.49;99608.00;5002052;28;20535;-50
2023/12/23 08:46:51;;;;;;;0.30;0.20;;;;;;;10.73;91.35;99621.78;5015580;28;20530;-50
2023/12/23 08:49:18;;;;;;;0.30;0.20;;;;;;;10.66;91.73;99624.66;5009231;28;20496;-50
2023/12/23 08:54:15;;;;;;;0.30;0.20;;;;;;;10.73;90.94;99624.44;5013072;28;20468;-54
2023/12/23 08:56:42;;;;;;;0.30;0.20;;;;;;;10.75;91.21;99618.13;5002662;28;20484;-55
2023/12/23 08:59:08;;;;;;;0.30;0.20;;;;;;;10.85;91.24;99608.84;5004797;28;20918;-55
2023/12/23 09:01:35;;;;;;;0.30;0.20;;;;;;;10.84;90.86;99615.09;5015908;28;20942;-53
2023/12/23 09:04:01;;;;;;;0.30;0.20;;;;;;;10.83;90.63;99617.81;5015714;28;20470;-58
2023/12/23 09:06:28;;;;;;;0.30;0.20;;;;;;;10.92;90.50;99609.44;5015494;28;20506;-53
2023/12/23 09:08:57;;;;;;;0.30;0.20;;;;;;;10.90;90.63;99621.94;5015721;28;20448;-53
2023/12/23 09:11:24;;;;;;;0.30;0.20;;;;;;;10.93;91.29;99606.72;5016178;28;20459;-54
2023/12/23 09:13:50;;;;;;;0.30;0.20;;;;;;;11.08;90.63;99620.31;5015581;28;20533;-53
2023/12/23 09:16:17;;;;;;;0.30;0.20;;;;;;;11.07;90.38;99613.28;5015241;28;20468;-53
2023/12/23 09:18:43;;;;;;;0.30;0.20;;;;;;;11.07;90.96;99610.59;5014940;28;20855;-53
2023/12/23 09:21:10;;;;;;;0.30;0.20;;;;;;;11.14;90.34;99609.44;5015393;28;20548;-53
2023/12/23 09:23:37;;;;;;;0.30;0.20;;;;;;;11.13;89.94;99605.06;5015043;28;20476;-53
2023/12/23 09:26:04;;;;;;;0.30;0.20;;;;;;;11.08;90.75;99607.88;5016371;28;20875;-53
2023/12/23 09:28:30;;;;;;;0.30;0.20;;;;;;;11.27;90.19;99600.88;5015858;28;20980;-54
2023/12/23 09:30:57;;;;;;;0.30;0.20;;;;;;;11.20;90.18;99611.81;5014681;28;20572;-54
2023/12/23 09:33:23;;;;;;;0.30;0.20;;;;;;;11.17;89.97;99604.84;5013679;28;20921;-52
2023/12/23 09:35:50;;;;;;;0.30;0.20;;;;;;;11.22;89.98;99615.28;5015215;28;20464;-52
2023/12/23 09:38:16;;;;;;;0.30;0.20;;;;;;;11.20;90.22;99609.16;5015041;28;20457;-52
2023/12/23 09:40:43;;;;;;;0.30;0.20;;;;;;;11.26;89.86;99603.59;5017200;28;20480;-53
2023/12/23 09:43:11;;;;;;;0.30;0.20;;;;;;;11.32;89.68;99613.09;5014914;28;20495;-52
2023/12/23 09:45:40;;;;;;;0.30;0.20;;;;;;;11.30;89.45;99612.31;5014433;28;20517;-52
2023/12/23 09:48:06;;;;;;;0.30;0.20;;;;;;;11.30;89.76;99621.16;5015776;28;20507;-52
2023/12/23 09:50:33;;;;;;;0.30;0.20;;;;;;;11.24;89.68;99624.09;5014675;28;21032;-52
2023/12/23 09:53:00;;;;;;;0.30;0.20;;;;;;;11.45;89.51;99631.16;5014141;28;20492;-52
2023/12/23 09:55:27;;;;;;;0.30;0.20;;;;;;;11.32;89.44;99624.63;5014133;28;20448;-54
2023/12/23 09:57:54;;;;;;;0.30;0.20;;;;;;;11.41;89.42;99623.38;5014070;28;20556;-54
2023/12/23 10:00:21;;;;;;;0.30;0.20;;;;;;;11.36;89.13;99633.31;5012932;28;20484;-53
2023/12/23 10:02:47;;;;;;;0.30;0.20;;;;;;;11.53;89.38;99633.50;5013862;28;20522;-53
2023/12/23 10:05:14;;;;;;;0.30;0.20;;;;;;;11.43;89.27;99626.84;5013702;28;20452;-52
2023/12/23 10:07:41;;;;;;;0.30;0.20;;;;;;;11.49;90.14;99624.75;5014234;28;20836;-54
2023/12/23 10:10:07;;;;;;;0.30;0.20;;;;;;;11.46;89.33;99630.22;5013788;28;20452;-52
2023/12/23 10:12:34;;;;;;;0.30;0.20;;;;;;;11.60;89.58;99624.28;5013881;28;20500;-54
2023/12/23 10:15:00;;;;;;;0.30;0.20;;;;;;;11.48;89.75;99627.50;5013661;28;20938;-51
2023/12/23 10:17:27;;;;;;;0.30;0.20;;;;;;;11.41;90.38;99628.69;5013795;28;20897;-51
2023/12/23 10:19:55;;;;;;;0.30;0.20;;;;;;;11.46;90.94;99635.53;5014049;28;20455;-52
2023/12/23 10:22:25;;;;;;;0.30;0.20;;;;;;;11.43;90.85;99641.00;5013684;28;20464;-53
2023/12/23 10:24:52;;;;;;;0.30;0.20;;;;;;;11.48;91.15;99643.47;5013402;28;20491;-52
2023/12/23 10:27:19;;;;;;;0.30;0.20;;;;;;;11.29;91.44;99630.06;5013626;28;20973;-54
2023/12/23 10:29:51;;;;;;;0.30;0.20;;;;;;;11.32;90.92;99637.91;5013419;28;20531;-53
2023/12/23 10:32:23;;;;;;;0.30;0.20;;;;;;;11.45;91.36;99630.28;5013755;28;20551;-53
2023/12/23 10:34:56;;;;;;;0.30;0.20;;;;;;;11.36;92.75;99633.31;5013561;28;20444;-53
2023/12/23 10:37:24;;;;;;;0.30;0.20;;;;;;;11.34;92.74;99636.06;5015502;28;20448;-54
2023/12/23 10:39:57;;;;;;;0.30;0.20;;;;;;;11.42;93.60;99633.94;5013290;28;20544;-54
2023/12/23 10:42:24;;;;;;;0.30;0.20;;;;;;;11.34;95.18;99654.69;5013078;28;20500;-54
2023/12/23 10:44:51;;;;;;;0.30;0.20;;;;;;;11.40;95.74;99661.56;5013123;28;20452;-54
2023/12/23 10:47:18;;;;;;;0.30;0.20;;;;;;;11.09;97.03;99659.28;5013544;28;20540;-54
2023/12/23 10:49:46;;;;;;;0.30;0.20;;;;;;;11.22;97.70;99652.53;5013095;28;21031;-54
2023/12/23 10:52:13;;;;;;;0.30;0.20;;;;;;;11.18;98.27;99654.47;5013122;28;20835;-54
2023/12/23 10:54:40;;;;;;;0.30;0.20;;;;;;;11.14;98.88;99650.22;5012898;28;20496;-54
2023/12/23 10:57:07;;;;;;;0.30;0.20;;;;;;;11.29;98.78;99654.03;5012837;28;20453;-54
2023/12/23 10:59:34;;;;;;;0.30;0.20;;;;;;;11.10;99.86;99661.00;5012804;28;20484;-54
2023/12/23 11:02:18;;;;;;;0.30;0.20;;;;;;;10.95;100.00;99647.41;5012943;28;20476;-54
2023/12/23 11:04:49;;;;;;;0.30;0.20;;;;;;;11.10;100.00;99653.03;5012877;28;20467;-54
2023/12/23 11:07:19;;;;;;;11.13;4.63;;;;;;;11.11;99.02;99653.00;5012812;28;20952;-55
2023/12/23 11:09:50;;;;;;;0.30;0.20;;;;;;;11.20;97.64;99663.25;5012486;28;20455;-54
2023/12/23 11:12:17;;;;;;;0.30;0.20;;;;;;;11.24;96.99;99658.69;5012863;28;20817;-54
2023/12/23 11:14:44;;;;;;;0.30;0.20;;;;;;;11.25;96.79;99652.44;5012731;28;20492;-54
2023/12/23 11:17:25;;;;;;;0.30;0.20;;;;;;;11.20;96.30;99665.03;5012674;28;20452;-54
2023/12/23 11:19:57;;;;;;;0.30;0.20;;;;;;;11.29;96.20;99667.31;5012489;28;20453;-52
2023/12/23 11:22:24;;;;;;;0.30;0.20;;;;;;;11.17;96.00;99657.19;5012782;28;20499;-54
2023/12/23 11:24:51;;;;;;;0.30;0.20;;;;;;;11.24;96.06;99664.88;5012595;28;20447;-54
2023/12/23 11:27:31;;;;;;;0.30;0.20;;;;;;;11.25;95.04;99668.38;5012336;28;21016;-54
2023/12/23 11:30:02;;;;;;;0.30;0.20;;;;;;;11.17;94.86;99663.38;5001502;28;20472;-54
2023/12/23 11:32:38;;;;;;;0.30;0.20;;;;;;;11.20;94.38;99663.25;5012215;28;20568;-54
2023/12/23 11:35:12;;;;;;;0.30;0.20;;;;;;;11.38;94.08;99645.66;5012393;28;20948;-54
2023/12/23 11:37:52;;;;;;;0.30;0.20;;;;;;;11.43;93.79;99645.47;5012251;28;21251;-54